TEA weather

Tela Airport
Tela, Atlantida, Honduras

Public forecast

Using degrees Celsius for public forecast. Weather courtesy of forecast.io.

METAR (pilot weather report)

Report is more than 6 hours old.

Retrieved 2019/02/15 21:00 UTC (17 hours ago):

MHTE 152100Z 04006KT 9999 SCT026TCU 29/23 Q1013 TCU ESE SW HZ

TAF (pilot weather forecast)

Closest forecast is Ramón Villeda Morales International Airport, 32.4 nm (59.9 km) SW. Retrieved 2019/02/16 12:21 UTC (2 hours ago):

TAF MHLM 161024Z 1612/1712 VRB02KT 9999 FEW025 SCT080 TX35/1621Z TN21/1712Z BECMG 1616/1618 02010KT BECMG 1703/1705 VRB02KT SCT026